createdAt,value
2023-03-02T00:01:47.009Z,100.00
2023-03-02T00:04:21.816Z,100.00
2023-03-02T00:06:52.645Z,100.00
2023-03-02T00:09:20.838Z,100.00
2023-03-02T00:11:49.106Z,100.00
2023-03-02T00:14:17.187Z,100.00
2023-03-02T00:16:45.272Z,100.00
2023-03-02T00:19:13.320Z,100.00
2023-03-02T00:21:42.816Z,100.00
2023-03-02T00:24:11.026Z,100.00
2023-03-02T00:26:39.296Z,100.00
2023-03-02T00:29:07.389Z,100.00
2023-03-02T00:31:35.981Z,100.00
2023-03-02T00:34:04.077Z,100.00
2023-03-02T00:36:32.235Z,100.00
2023-03-02T00:39:01.700Z,100.00
2023-03-02T00:41:29.787Z,100.00
2023-03-02T00:43:58.055Z,100.00
2023-03-02T00:46:28.607Z,100.00
2023-03-02T00:48:56.841Z,100.00
2023-03-02T00:51:25.155Z,100.00
2023-03-02T00:53:53.243Z,100.00
2023-03-02T00:56:22.716Z,100.00
2023-03-02T00:58:53.205Z,100.00
2023-03-02T01:01:21.677Z,100.00
2023-03-02T01:03:53.451Z,100.00
2023-03-02T01:06:22.946Z,100.00
2023-03-02T01:08:51.085Z,100.00
2023-03-02T01:11:21.430Z,100.00
2023-03-02T01:13:51.439Z,100.00
2023-03-02T01:16:19.665Z,100.00
2023-03-02T01:18:47.774Z,100.00
2023-03-02T01:21:17.366Z,100.00
2023-03-02T01:23:45.527Z,100.00
2023-03-02T01:26:13.716Z,100.00
2023-03-02T01:28:41.779Z,100.00
2023-03-02T01:31:11.236Z,100.00
2023-03-02T01:33:39.316Z,100.00
2023-03-02T01:36:08.749Z,100.00
2023-03-02T01:38:36.929Z,100.00
2023-03-02T01:41:05.323Z,100.00
2023-03-02T01:43:33.556Z,100.00
2023-03-02T01:46:04.664Z,100.00
2023-03-02T01:48:52.732Z,100.00
2023-03-02T01:51:52.517Z,100.00
2023-03-02T01:54:24.396Z,100.00
2023-03-02T01:57:02.628Z,100.00
2023-03-02T01:59:34.019Z,100.00
2023-03-02T02:02:06.132Z,100.00
2023-03-02T02:04:37.806Z,100.00
2023-03-02T02:07:07.571Z,100.00
2023-03-02T02:09:38.322Z,100.00
2023-03-02T02:12:07.101Z,100.00
2023-03-02T02:14:35.435Z,100.00
2023-03-02T02:17:03.792Z,100.00
2023-03-02T02:19:57.703Z,100.00
2023-03-02T02:22:42.104Z,100.00
2023-03-02T02:25:19.665Z,100.00
2023-03-02T02:27:49.559Z,100.00
2023-03-02T02:30:19.552Z,100.00
2023-03-02T02:32:49.919Z,100.00
2023-03-02T02:35:22.570Z,100.00
2023-03-02T02:37:54.909Z,100.00
2023-03-02T02:40:39.575Z,100.00
2023-03-02T02:43:13.857Z,100.00
2023-03-02T02:45:42.414Z,100.00
2023-03-02T02:48:12.864Z,100.00
2023-03-02T02:50:41.041Z,100.00
2023-03-02T02:53:14.348Z,100.00
2023-03-02T02:55:44.133Z,100.00
2023-03-02T02:58:26.705Z,100.00
2023-03-02T03:00:56.413Z,100.00
2023-03-02T03:03:31.957Z,100.00
2023-03-02T03:06:05.763Z,100.00
2023-03-02T03:08:53.568Z,100.00
2023-03-02T03:11:28.917Z,100.00
2023-03-02T03:14:05.778Z,100.00
2023-03-02T03:16:35.140Z,100.00
2023-03-02T03:19:09.626Z,100.00
2023-03-02T03:21:37.762Z,100.00
2023-03-02T03:24:06.915Z,100.00
2023-03-02T03:26:35.343Z,100.00
2023-03-02T03:29:05.984Z,100.00
2023-03-02T03:31:34.709Z,100.00
2023-03-02T03:34:03.504Z,100.00
2023-03-02T03:36:35.748Z,100.00
2023-03-02T03:39:05.762Z,100.00
2023-03-02T03:41:34.735Z,100.00
2023-03-02T03:44:03.224Z,100.00
2023-03-02T03:46:36.022Z,100.00
2023-03-02T03:49:05.360Z,100.00
2023-03-02T03:51:35.494Z,100.00
2023-03-02T03:54:08.180Z,100.00
2023-03-02T03:56:45.040Z,100.00
2023-03-02T03:59:17.554Z,100.00
2023-03-02T04:01:54.598Z,100.00
2023-03-02T04:04:26.542Z,100.00
2023-03-02T04:06:55.789Z,100.00
2023-03-02T04:09:25.038Z,100.00
2023-03-02T04:11:56.698Z,100.00
2023-03-02T04:14:26.456Z,100.00
2023-03-02T04:16:57.900Z,100.00
2023-03-02T04:19:27.514Z,100.00
2023-03-02T04:21:59.067Z,100.00
2023-03-02T04:24:28.049Z,100.00
2023-03-02T04:26:58.139Z,100.00
2023-03-02T04:29:26.673Z,100.00
2023-03-02T04:31:55.237Z,100.00
2023-03-02T04:34:26.610Z,100.00
2023-03-02T04:36:55.662Z,100.00
2023-03-02T04:39:24.740Z,100.00
2023-03-02T04:41:54.810Z,100.00
2023-03-02T04:44:23.355Z,100.00
2023-03-02T04:46:51.885Z,100.00
2023-03-02T04:49:21.205Z,100.00
2023-03-02T04:51:51.738Z,100.00
2023-03-02T04:54:22.762Z,100.00
2023-03-02T04:56:51.768Z,100.00
2023-03-02T04:59:22.559Z,100.00
2023-03-02T05:01:51.249Z,100.00
2023-03-02T05:04:19.782Z,100.00
2023-03-02T05:06:48.302Z,100.00
2023-03-02T05:09:18.407Z,100.00
2023-03-02T05:11:46.710Z,100.00
2023-03-02T05:14:14.921Z,100.00
2023-03-02T05:16:43.372Z,100.00
2023-03-02T05:19:13.386Z,100.00
2023-03-02T05:21:42.044Z,100.00
2023-03-02T05:24:10.269Z,100.00
2023-03-02T05:26:39.992Z,100.00
2023-03-02T05:29:08.576Z,100.00
2023-03-02T05:31:39.691Z,100.00
2023-03-02T05:34:10.230Z,100.00
2023-03-02T05:36:38.717Z,100.00
2023-03-02T05:39:07.905Z,100.00
2023-03-02T05:41:37.727Z,100.00
2023-03-02T05:44:09.554Z,100.00
2023-03-02T05:46:37.951Z,100.00
2023-03-02T05:49:06.243Z,100.00
2023-03-02T05:51:34.404Z,100.00
2023-03-02T05:54:02.497Z,100.00
2023-03-02T05:56:30.962Z,100.00
2023-03-02T05:58:59.224Z,100.00
2023-03-02T06:01:28.901Z,100.00
2023-03-02T06:03:57.461Z,100.00
2023-03-02T06:06:25.706Z,100.00
2023-03-02T06:08:53.972Z,100.00
2023-03-02T06:11:22.088Z,100.00
2023-03-02T06:13:50.487Z,100.00
2023-03-02T06:16:18.665Z,100.00
2023-03-02T06:18:48.204Z,100.00
2023-03-02T06:21:16.556Z,100.00
2023-03-02T06:23:44.682Z,100.00
2023-03-02T06:26:13.978Z,100.00
2023-03-02T06:28:52.114Z,100.00
2023-03-02T06:31:21.970Z,100.00
2023-03-02T06:33:51.545Z,100.00
2023-03-02T06:36:20.256Z,100.00
2023-03-02T06:38:48.405Z,100.00
2023-03-02T06:41:17.151Z,100.00
2023-03-02T06:43:45.413Z,100.00
2023-03-02T06:46:13.696Z,100.00
2023-03-02T06:48:41.888Z,100.00
2023-03-02T06:51:12.756Z,100.00
2023-03-02T06:53:40.870Z,100.00
2023-03-02T06:56:09.384Z,100.00
2023-03-02T06:58:38.309Z,100.00
2023-03-02T07:01:07.914Z,100.00
2023-03-02T07:03:37.019Z,100.00
2023-03-02T07:06:05.589Z,100.00
2023-03-02T07:08:36.077Z,100.00
2023-03-02T07:11:06.988Z,100.00
2023-03-02T07:13:35.165Z,100.00
2023-03-02T07:16:07.757Z,100.00
2023-03-02T07:18:35.862Z,100.00
2023-03-02T07:21:04.282Z,100.00
2023-03-02T07:23:34.586Z,100.00
2023-03-02T07:26:02.722Z,100.00
2023-03-02T07:28:30.857Z,100.00
2023-03-02T07:30:59.006Z,100.00
2023-03-02T07:33:27.165Z,100.00
2023-03-02T07:35:55.241Z,100.00
2023-03-02T07:38:23.405Z,100.00
2023-03-02T07:40:53.065Z,100.00
2023-03-02T07:43:21.510Z,100.00
2023-03-02T07:45:49.627Z,100.00
2023-03-02T07:48:18.199Z,100.00
2023-03-02T07:50:46.311Z,100.00
2023-03-02T07:53:15.720Z,100.00
2023-03-02T07:55:43.917Z,100.00
2023-03-02T07:58:13.464Z,100.00
2023-03-02T08:00:42.751Z,100.00
2023-03-02T08:03:11.019Z,100.00
2023-03-02T08:05:39.307Z,100.00
2023-03-02T08:08:07.592Z,100.00
2023-03-02T08:10:36.481Z,100.00
2023-03-02T08:13:04.922Z,100.00
2023-03-02T08:15:34.460Z,100.00
2023-03-02T08:18:02.703Z,100.00
2023-03-02T08:20:30.857Z,100.00
2023-03-02T08:22:59.049Z,100.00
2023-03-02T08:25:29.500Z,100.00
2023-03-02T08:27:57.663Z,100.00
2023-03-02T08:30:25.857Z,100.00
2023-03-02T08:32:55.408Z,100.00
2023-03-02T08:35:23.656Z,100.00
2023-03-02T08:37:51.877Z,100.00
2023-03-02T08:40:20.218Z,100.00
2023-03-02T08:42:49.920Z,100.00
2023-03-02T08:45:19.592Z,100.00
2023-03-02T08:47:47.754Z,100.00
2023-03-02T08:50:17.312Z,100.00
2023-03-02T08:52:45.424Z,100.00
2023-03-02T08:55:14.059Z,100.00
2023-03-02T08:57:42.666Z,100.00
2023-03-02T09:00:14.877Z,100.00
2023-03-02T09:02:43.391Z,100.00
2023-03-02T09:05:12.315Z,100.00
2023-03-02T09:07:42.054Z,100.00
2023-03-02T09:10:11.210Z,100.00
2023-03-02T09:12:39.407Z,100.00
2023-03-02T09:15:08.513Z,100.00
2023-03-02T09:17:36.722Z,100.00
2023-03-02T09:20:05.470Z,100.00
2023-03-02T09:22:36.019Z,100.00
2023-03-02T09:25:07.104Z,100.00
2023-03-02T09:27:35.286Z,100.00
2023-03-02T09:30:03.465Z,100.00
2023-03-02T09:32:32.099Z,100.00
2023-03-02T09:35:00.515Z,100.00
2023-03-02T09:37:29.338Z,100.00
2023-03-02T09:39:57.524Z,100.00
2023-03-02T09:42:55.641Z,100.00
2023-03-02T09:45:37.112Z,100.00
2023-03-02T09:48:15.993Z,100.00
2023-03-02T09:50:54.760Z,100.00
2023-03-02T09:53:36.117Z,100.00
2023-03-02T09:56:04.889Z,100.00
2023-03-02T09:58:39.354Z,100.00
2023-03-02T10:01:16.613Z,100.00
2023-03-02T10:03:52.838Z,100.00
2023-03-02T10:06:21.057Z,100.00
2023-03-02T10:08:50.897Z,100.00
2023-03-02T10:11:25.572Z,100.00
2023-03-02T10:13:59.785Z,100.00
2023-03-02T10:16:34.668Z,100.00
2023-03-02T10:19:09.980Z,100.00
2023-03-02T10:21:41.358Z,100.00
2023-03-02T10:24:18.917Z,100.00
2023-03-02T10:26:51.661Z,100.00
2023-03-02T10:29:34.991Z,100.00
2023-03-02T10:32:14.481Z,100.00
2023-03-02T10:34:42.660Z,100.00
2023-03-02T10:37:14.803Z,100.00
2023-03-02T10:39:43.013Z,100.00
2023-03-02T10:42:17.802Z,100.00
2023-03-02T10:44:51.602Z,100.00
2023-03-02T10:47:25.671Z,100.00
2023-03-02T10:49:54.920Z,100.00
2023-03-02T10:52:24.673Z,100.00
2023-03-02T10:55:04.445Z,100.00
2023-03-02T10:57:37.970Z,100.00
2023-03-02T11:00:17.901Z,100.00
2023-03-02T11:02:54.699Z,100.00
2023-03-02T11:05:32.478Z,98.72
2023-03-02T11:08:02.662Z,96.60
2023-03-02T11:10:32.805Z,96.73
2023-03-02T11:13:02.590Z,97.41
2023-03-02T11:15:38.219Z,95.01
2023-03-02T11:18:22.164Z,93.32
2023-03-02T11:20:54.036Z,92.19
2023-03-02T11:23:33.782Z,88.11
2023-03-02T11:26:08.781Z,92.83
2023-03-02T11:28:45.656Z,91.04
2023-03-02T11:31:22.944Z,91.98
2023-03-02T11:34:23.399Z,91.84
2023-03-02T11:37:00.123Z,90.98
2023-03-02T11:39:46.548Z,91.39
2023-03-02T11:42:25.708Z,94.00
2023-03-02T11:44:53.913Z,89.86
2023-03-02T11:47:24.389Z,88.96
2023-03-02T11:49:56.890Z,91.14
2023-03-02T11:52:29.889Z,90.74
2023-03-02T11:55:01.418Z,90.79
2023-03-02T11:57:34.504Z,88.01
2023-03-02T12:00:04.571Z,84.89
2023-03-02T12:02:41.973Z,84.58
2023-03-02T12:05:25.822Z,82.52
2023-03-02T12:08:02.540Z,82.05
2023-03-02T12:10:35.911Z,81.06
2023-03-02T12:13:14.972Z,80.85
2023-03-02T12:15:45.432Z,79.07
2023-03-02T12:18:55.387Z,74.96
2023-03-02T12:21:25.757Z,76.07
2023-03-02T12:24:04.144Z,82.94
2023-03-02T12:26:36.198Z,84.76
2023-03-02T12:29:08.052Z,86.24
2023-03-02T12:31:48.197Z,83.70
2023-03-02T12:34:37.338Z,84.38
2023-03-02T12:37:14.045Z,84.89
2023-03-02T12:40:04.200Z,84.60
2023-03-02T12:42:51.473Z,86.29
2023-03-02T12:45:33.234Z,87.27
2023-03-02T12:48:06.159Z,84.23
2023-03-02T12:50:40.899Z,86.21
2023-03-02T12:53:18.431Z,82.03
2023-03-02T12:55:46.657Z,82.44
2023-03-02T12:58:19.681Z,82.70
2023-03-02T13:00:53.430Z,83.65
2023-03-02T13:03:21.662Z,83.53
2023-03-02T13:05:51.960Z,80.04
2023-03-02T13:08:24.382Z,79.76
2023-03-02T13:10:54.598Z,81.38
2023-03-02T13:13:26.081Z,80.95
2023-03-02T13:15:57.368Z,80.85
2023-03-02T13:18:27.487Z,78.94
2023-03-02T13:20:57.143Z,77.17
2023-03-02T13:23:27.329Z,76.71
2023-03-02T13:25:57.844Z,74.53
2023-03-02T13:28:28.735Z,73.25
2023-03-02T13:31:02.045Z,77.17
2023-03-02T13:33:31.752Z,75.15
2023-03-02T13:36:01.796Z,72.74
2023-03-02T13:38:35.207Z,77.45
2023-03-02T13:41:04.051Z,76.14
2023-03-02T13:43:38.887Z,75.71
2023-03-02T13:46:25.886Z,74.96
2023-03-02T13:49:13.951Z,75.13
2023-03-02T13:51:45.660Z,73.99
2023-03-02T13:54:21.930Z,70.88
2023-03-02T13:56:52.311Z,70.94
2023-03-02T13:59:22.729Z,72.37
2023-03-02T14:01:51.290Z,70.03
2023-03-02T14:04:21.740Z,71.08
2023-03-02T14:06:52.384Z,72.37
2023-03-02T14:09:21.086Z,71.08
2023-03-02T14:11:53.108Z,70.27
2023-03-02T14:14:23.742Z,72.21
2023-03-02T14:16:52.270Z,70.48
2023-03-02T14:19:20.713Z,71.04
2023-03-02T14:21:48.859Z,69.94
2023-03-02T14:24:18.379Z,69.73
2023-03-02T14:26:48.763Z,69.35
2023-03-02T14:29:23.351Z,68.83
2023-03-02T14:31:51.659Z,69.00
2023-03-02T14:34:19.925Z,69.70
2023-03-02T14:36:51.041Z,71.11
2023-03-02T14:39:23.999Z,70.21
2023-03-02T14:41:54.750Z,72.19
2023-03-02T14:44:23.633Z,70.52
2023-03-02T14:46:53.087Z,71.20
2023-03-02T14:49:21.230Z,70.82
2023-03-02T14:52:01.656Z,71.79
2023-03-02T14:54:39.586Z,71.34
2023-03-02T14:57:17.833Z,71.11
2023-03-02T14:59:45.993Z,72.09
2023-03-02T15:02:24.705Z,72.91
2023-03-02T15:04:56.569Z,73.31
2023-03-02T15:07:26.482Z,72.50
2023-03-02T15:09:56.311Z,74.79
2023-03-02T15:12:25.162Z,72.81
2023-03-02T15:14:53.339Z,74.52
2023-03-02T15:17:21.677Z,73.55
2023-03-02T15:19:49.769Z,73.63
2023-03-02T15:22:17.952Z,73.93
2023-03-02T15:24:46.056Z,73.57
2023-03-02T15:27:15.692Z,73.11
2023-03-02T15:29:45.126Z,74.30
2023-03-02T15:32:13.897Z,73.38
2023-03-02T15:34:42.248Z,74.59
2023-03-02T15:37:11.535Z,75.20
2023-03-02T15:39:39.738Z,74.55
2023-03-02T15:42:08.184Z,76.08
2023-03-02T15:44:37.663Z,76.78
2023-03-02T15:47:05.985Z,76.81
2023-03-02T15:49:34.097Z,76.54
2023-03-02T15:52:02.421Z,75.90
2023-03-02T15:54:30.848Z,76.54
2023-03-02T15:56:59.030Z,77.22
2023-03-02T15:59:28.863Z,77.89
2023-03-02T16:01:59.791Z,77.46
2023-03-02T16:04:28.475Z,77.73
2023-03-02T16:06:57.073Z,78.72
2023-03-02T16:09:26.687Z,79.39
2023-03-02T16:11:56.200Z,78.62
2023-03-02T16:14:25.067Z,79.94
2023-03-02T16:16:53.724Z,80.71
2023-03-02T16:19:23.709Z,82.35
2023-03-02T16:21:51.853Z,83.17
2023-03-02T16:24:20.015Z,82.96
2023-03-02T16:26:48.974Z,83.40
2023-03-02T16:29:17.127Z,83.85
2023-03-02T16:31:47.746Z,84.06
2023-03-02T16:34:16.834Z,83.99
2023-03-02T16:36:47.166Z,84.33
2023-03-02T16:39:16.472Z,83.85
2023-03-02T16:41:46.323Z,85.18
2023-03-02T16:44:16.221Z,85.80
2023-03-02T16:46:45.349Z,86.78
2023-03-02T16:49:14.882Z,86.17
2023-03-02T16:51:44.375Z,99.15
2023-03-02T16:54:17.830Z,96.35
2023-03-02T16:56:47.607Z,90.04
2023-03-02T16:59:16.030Z,88.97
2023-03-02T17:01:44.544Z,89.95
2023-03-02T17:04:12.887Z,99.16
2023-03-02T17:06:59.720Z,97.19
2023-03-02T17:09:30.421Z,98.67
2023-03-02T17:11:59.804Z,88.14
2023-03-02T17:14:29.155Z,87.64
2023-03-02T17:16:57.931Z,86.28
2023-03-02T17:19:29.700Z,89.58
2023-03-02T17:21:59.470Z,87.75
2023-03-02T17:24:29.704Z,90.12
2023-03-02T17:26:58.196Z,98.38
2023-03-02T17:29:27.421Z,88.63
2023-03-02T17:31:57.112Z,92.57
2023-03-02T17:34:30.757Z,93.68
2023-03-02T17:37:00.451Z,93.79
2023-03-02T17:39:30.810Z,95.19
2023-03-02T17:41:59.905Z,95.97
2023-03-02T17:44:29.575Z,96.58
2023-03-02T17:46:58.792Z,95.16
2023-03-02T17:49:27.644Z,97.80
2023-03-02T17:51:57.491Z,99.07
2023-03-02T17:54:27.370Z,98.82
2023-03-02T17:56:57.595Z,95.74
2023-03-02T17:59:26.456Z,96.08
2023-03-02T18:01:55.405Z,99.97
2023-03-02T18:04:25.351Z,95.50
2023-03-02T18:06:54.173Z,97.83
2023-03-02T18:09:23.064Z,96.81
2023-03-02T18:11:52.408Z,96.21
2023-03-02T18:14:23.143Z,97.43
2023-03-02T18:16:53.052Z,98.19
2023-03-02T18:19:21.898Z,97.95
2023-03-02T18:21:51.206Z,97.34
2023-03-02T18:24:19.863Z,96.51
2023-03-02T18:26:48.987Z,95.69
2023-03-02T18:29:17.833Z,100.00
2023-03-02T18:31:49.534Z,99.43
2023-03-02T18:34:20.039Z,95.75
2023-03-02T18:36:50.210Z,96.12
2023-03-02T18:42:03.611Z,95.81
2023-03-02T18:44:33.712Z,86.57
2023-03-02T18:47:05.467Z,85.75
2023-03-02T18:49:34.936Z,82.14
2023-03-02T18:52:07.077Z,79.87
2023-03-02T18:54:36.762Z,78.31
2023-03-02T18:57:07.881Z,78.38
2023-03-02T18:59:38.150Z,78.75
2023-03-02T19:02:10.592Z,81.12
2023-03-02T19:04:40.904Z,78.07
2023-03-02T19:07:10.423Z,83.71
2023-03-02T19:09:39.567Z,78.77
2023-03-02T19:12:09.166Z,78.70
2023-03-02T19:14:38.384Z,82.00
2023-03-02T19:17:09.458Z,80.97
2023-03-02T19:19:43.520Z,76.89
2023-03-02T19:22:13.414Z,75.20
2023-03-02T19:24:44.870Z,75.24
2023-03-02T19:27:16.640Z,75.41
2023-03-02T19:29:46.700Z,74.77
2023-03-02T19:32:17.997Z,73.53
2023-03-02T19:34:47.561Z,74.33
2023-03-02T19:37:17.104Z,74.15
2023-03-02T19:39:47.202Z,74.42
2023-03-02T19:42:18.477Z,75.28
2023-03-02T19:44:48.100Z,76.07
2023-03-02T19:47:19.377Z,77.45
2023-03-02T19:49:49.494Z,76.83
2023-03-02T19:52:22.799Z,78.98
2023-03-02T19:54:52.447Z,77.86
2023-03-02T19:57:22.988Z,79.52
2023-03-02T19:59:52.828Z,80.87
2023-03-02T20:02:24.689Z,78.77
2023-03-02T20:04:54.280Z,78.92
2023-03-02T20:07:23.718Z,79.07
2023-03-02T20:09:53.466Z,78.35
2023-03-02T20:12:23.434Z,80.22
2023-03-02T20:14:54.748Z,81.17
2023-03-02T20:17:28.109Z,83.07
2023-03-02T20:19:59.205Z,83.60
2023-03-02T20:22:28.584Z,80.36
2023-03-02T20:25:00.153Z,84.23
2023-03-02T20:27:30.011Z,84.77
2023-03-02T20:30:00.038Z,86.24
2023-03-02T20:32:30.929Z,87.03
2023-03-02T20:35:00.164Z,88.19
2023-03-02T20:37:32.813Z,87.17
2023-03-02T20:40:04.204Z,87.40
2023-03-02T20:42:36.593Z,88.10
2023-03-02T20:45:07.168Z,89.17
2023-03-02T20:47:38.993Z,90.27
2023-03-02T20:50:21.479Z,90.00
2023-03-02T20:52:55.450Z,90.98
2023-03-02T20:55:24.903Z,92.57
2023-03-02T20:57:56.854Z,91.98
2023-03-02T21:00:28.672Z,93.52
2023-03-02T21:03:00.885Z,93.59
2023-03-02T21:05:33.131Z,93.86
2023-03-02T21:08:02.989Z,96.01
2023-03-02T21:10:37.519Z,97.13
2023-03-02T21:13:08.206Z,97.48
2023-03-02T21:15:37.591Z,97.26
2023-03-02T21:18:07.688Z,96.58
2023-03-02T21:20:37.725Z,97.68
2023-03-02T21:23:07.376Z,95.95
2023-03-02T21:25:36.243Z,95.34
2023-03-02T21:28:05.415Z,96.40
2023-03-02T21:30:38.232Z,97.00
2023-03-02T21:33:08.009Z,94.67
2023-03-02T21:35:37.645Z,94.32
2023-03-02T21:38:07.647Z,94.26
2023-03-02T21:40:40.669Z,95.59
2023-03-02T21:43:09.849Z,94.20
2023-03-02T21:45:38.686Z,93.70
2023-03-02T21:48:09.668Z,93.80
2023-03-02T21:50:39.533Z,94.59
2023-03-02T21:53:08.587Z,94.85
2023-03-02T21:55:38.501Z,95.55
2023-03-02T21:58:07.286Z,96.23
2023-03-02T22:00:38.657Z,95.92
2023-03-02T22:03:08.641Z,95.32
2023-03-02T22:05:36.898Z,94.81
2023-03-02T22:08:05.179Z,92.06
2023-03-02T22:13:23.949Z,94.07
2023-03-02T22:15:59.008Z,92.32
2023-03-02T22:18:28.058Z,92.03
2023-03-02T22:20:56.136Z,93.73
2023-03-02T22:23:26.258Z,93.10
2023-03-02T22:25:56.128Z,94.08
2023-03-02T22:28:27.521Z,94.62
2023-03-02T22:31:00.112Z,100.00
2023-03-02T22:33:29.774Z,99.49
2023-03-02T22:36:03.862Z,100.00
2023-03-02T22:38:32.536Z,100.00
2023-03-02T22:41:00.752Z,100.00
2023-03-02T22:43:33.148Z,100.00
2023-03-02T22:46:13.542Z,100.00
2023-03-02T22:48:44.081Z,100.00
2023-03-02T22:51:16.634Z,100.00
2023-03-02T22:53:50.138Z,100.00
2023-03-02T22:56:28.400Z,100.00
2023-03-02T22:58:59.810Z,100.00
2023-03-02T23:01:30.130Z,100.00
2023-03-02T23:04:04.263Z,100.00
2023-03-02T23:06:33.990Z,100.00
2023-03-02T23:09:07.622Z,100.00
2023-03-02T23:11:38.790Z,100.00
2023-03-02T23:14:19.150Z,100.00
2023-03-02T23:16:53.187Z,100.00
2023-03-02T23:19:21.813Z,100.00
2023-03-02T23:21:50.787Z,100.00
2023-03-02T23:24:22.044Z,100.00
2023-03-02T23:26:51.623Z,100.00
2023-03-02T23:29:22.100Z,100.00
2023-03-02T23:31:50.722Z,100.00
2023-03-02T23:34:18.880Z,100.00
2023-03-02T23:36:46.999Z,100.00
2023-03-02T23:39:15.366Z,100.00
2023-03-02T23:41:43.651Z,100.00
2023-03-02T23:44:11.758Z,100.00
2023-03-02T23:46:41.212Z,100.00
2023-03-02T23:49:09.389Z,100.00
2023-03-02T23:51:37.537Z,100.00
2023-03-02T23:54:06.011Z,100.00
2023-03-02T23:56:34.226Z,100.00
2023-03-02T23:59:02.311Z,100.00
